Time;durP1;ratioP1;P1;durP2;ratioP2;P2;SDS_P1;SDS_P2;PMS_P1;PMS_P2;Temp;Humidity;BMP_temperature;BMP_pressure;BME280_temperature;BME280_humidity;BME280_pressure;Samples;Min_cycle;Max_cycle;Signal;HPM_P1;HPM_P2
2021/12/28 00:02:00;;;;;;;99.32;30.00;;;;;;;7.11;100.00;99426.28;5060860;28;20612;-79
2021/12/28 00:04:25;;;;;;;84.93;28.92;;;;;;;7.09;100.00;99421.03;5070400;28;20052;-79
2021/12/28 00:06:51;;;;;;;89.30;28.17;;;;;;;7.07;100.00;99428.00;5072462;28;20476;-80
2021/12/28 00:09:16;;;;;;;90.85;28.45;;;;;;;7.05;100.00;99417.53;5057962;28;20020;-79
2021/12/28 00:11:42;;;;;;;74.75;25.92;;;;;;;7.07;100.00;99428.00;5067361;28;20029;-78
2021/12/28 00:14:08;;;;;;;79.63;26.85;;;;;;;7.04;100.00;99420.13;5063922;28;20098;-79
2021/12/28 00:19:18;;;;;;;70.85;24.00;;;;;;;7.05;100.00;99416.63;5076307;28;20075;-79
2021/12/28 00:21:43;;;;;;;76.10;25.13;;;;;;;7.02;100.00;99401.78;5073970;28;20448;-79
2021/12/28 00:24:09;;;;;;;71.88;25.52;;;;;;;7.02;100.00;99407.03;5062571;28;20109;-79
2021/12/28 00:26:34;;;;;;;69.05;23.60;;;;;;;7.00;100.00;99407.88;5058516;28;20032;-78
2021/12/28 00:29:00;;;;;;;61.97;23.38;;;;;;;6.98;100.00;99409.63;5071927;28;20029;-78
2021/12/28 00:31:26;;;;;;;86.70;23.15;;;;;;;6.97;100.00;99415.72;5060757;28;20482;-78
2021/12/28 00:33:53;;;;;;;80.80;22.77;;;;;;;6.99;100.00;99416.59;5064462;28;20044;-78
2021/12/28 00:36:19;;;;;;;91.43;25.05;;;;;;;7.02;100.00;99421.84;5058938;28;20086;-79
2021/12/28 00:38:45;;;;;;;82.55;24.83;;;;;;;7.01;100.00;99410.53;5055300;28;20037;-79
2021/12/28 00:41:11;;;;;;;84.43;24.30;;;;;;;7.00;100.00;99414.00;5065320;28;20052;-78
2021/12/28 00:43:37;;;;;;;68.63;22.58;;;;;;;6.98;100.00;99410.47;5062393;28;20029;-79
2021/12/28 00:46:06;;;;;;;73.82;23.05;;;;;;;6.96;100.00;99404.38;5068872;28;20032;-79
2021/12/28 00:48:32;;;;;;;80.38;23.30;;;;;;;6.95;100.00;99402.63;5072926;28;20380;-78
2021/12/28 00:50:58;;;;;;;70.07;22.33;;;;;;;6.94;100.00;99393.03;5073455;28;20620;-79
2021/12/28 00:53:24;;;;;;;74.22;21.10;;;;;;;6.94;100.00;99397.38;5057603;28;20029;-78
2021/12/28 00:55:50;;;;;;;67.13;21.27;;;;;;;6.91;100.00;99393.88;5056877;28;20119;-79
2021/12/28 00:58:17;;;;;;;61.78;21.30;;;;;;;6.93;100.00;99388.66;5057338;28;20044;-79
2021/12/28 01:00:45;;;;;;;71.38;21.17;;;;;;;6.91;100.00;99393.00;5064420;28;20700;-78
2021/12/28 01:03:11;;;;;;;52.65;17.98;;;;;;;6.94;100.00;99382.56;5066502;28;20037;-78
2021/12/28 01:05:39;;;;;;;68.68;20.98;;;;;;;6.88;100.00;99382.53;5069524;28;20077;-79
2021/12/28 01:08:06;;;;;;;66.45;19.52;;;;;;;6.84;100.00;99376.38;5071451;28;20094;-78
2021/12/28 01:10:36;;;;;;;75.85;21.15;;;;;;;6.81;100.00;99370.25;5073012;28;20036;-79
2021/12/28 01:13:03;;;;;;;66.75;19.67;;;;;;;6.78;100.00;99375.47;5070458;28;20365;-78
2021/12/28 01:15:30;;;;;;;69.75;18.77;;;;;;;6.77;100.00;99373.69;5072425;28;20032;-78
2021/12/28 01:17:56;;;;;;;53.20;17.35;;;;;;;6.73;100.00;99367.59;5072598;28;20037;-79
2021/12/28 01:20:22;;;;;;;51.08;16.02;;;;;;;6.71;100.00;99369.31;5059947;28;20024;-79
2021/12/28 01:22:48;;;;;;;58.10;18.83;;;;;;;6.65;100.00;99367.53;5067067;28;20031;-78
2021/12/28 01:25:15;;;;;;;54.10;17.40;;;;;;;6.61;100.00;99363.13;5065435;28;20475;-78
2021/12/28 01:27:43;;;;;;;75.28;17.70;;;;;;;6.58;100.00;99374.44;5061934;28;20056;-78
2021/12/28 01:30:10;;;;;;;58.22;18.77;;;;;;;6.56;100.00;99380.50;5058378;28;20028;-78
2021/12/28 01:32:37;;;;;;;66.97;17.65;;;;;;;6.53;100.00;99376.13;5069337;28;20477;-78
2021/12/28 01:35:07;;;;;;;49.00;16.58;;;;;;;6.51;100.00;99377.84;5065316;28;20055;-78
2021/12/28 01:37:33;;;;;;;73.63;17.80;;;;;;;6.51;100.00;99374.34;5069310;28;20037;-78
2021/12/28 01:39:58;;;;;;;64.95;15.85;;;;;;;6.50;100.00;99370.88;5064552;28;20032;-78
2021/12/28 01:42:24;;;;;;;55.97;16.00;;;;;;;6.52;100.00;99368.28;5102081;28;20016;-78
2021/12/28 01:44:50;;;;;;;62.40;16.38;;;;;;;6.53;100.00;99368.28;5107280;28;20375;-78
2021/12/28 01:47:21;;;;;;;63.00;16.90;;;;;;;6.55;100.00;99358.72;5078672;28;20039;-77
2021/12/28 01:49:46;;;;;;;69.00;17.42;;;;;;;6.57;100.00;99369.19;5105088;28;20040;-78
2021/12/28 01:52:12;;;;;;;65.95;17.02;;;;;;;6.60;100.00;99361.38;5098449;28;20372;-79
2021/12/28 01:54:38;;;;;;;59.70;17.33;;;;;;;6.61;100.00;99360.50;5114127;28;20100;-78
2021/12/28 01:57:04;;;;;;;72.60;16.77;;;;;;;6.62;100.00;99364.88;5087887;28;20059;-78
2021/12/28 01:59:29;;;;;;;70.50;16.77;;;;;;;6.61;100.00;99363.13;5106378;28;20031;-78
2021/12/28 02:01:56;;;;;;;54.88;15.30;;;;;;;6.61;100.00;99357.91;5087263;28;20554;-79
2021/12/28 02:04:25;;;;;;;69.47;16.23;;;;;;;6.63;100.00;99366.63;5092740;28;20035;-78
2021/12/28 02:06:58;;;;;;;66.50;15.18;;;;;;;6.63;100.00;99370.97;5087593;28;20110;-78
2021/12/28 02:09:24;;;;;;;66.13;14.35;;;;;;;6.65;100.00;99370.13;5095616;28;20088;-78
2021/12/28 02:11:50;;;;;;;59.90;15.18;;;;;;;6.69;100.00;99361.47;5095896;28;20039;-79
2021/12/28 02:14:15;;;;;;;55.65;14.05;;;;;;;6.71;100.00;99364.94;5111208;28;20030;-78
2021/12/28 02:16:43;;;;;;;69.57;15.27;;;;;;;6.68;100.00;99359.69;5086875;28;20448;-78
2021/12/28 02:19:12;;;;;;;60.10;14.25;;;;;;;6.69;100.00;99350.13;5095221;28;20062;-79
2021/12/28 02:21:38;;;;;;;68.57;15.20;;;;;;;6.69;100.00;99345.78;5094043;28;20011;-78
2021/12/28 02:24:07;;;;;;;72.38;14.25;;;;;;;6.70;100.00;99355.38;5090716;28;20028;-79
2021/12/28 02:26:33;;;;;;;72.05;13.18;;;;;;;6.69;100.00;99350.13;5094022;28;20494;-78
2021/12/28 02:28:58;;;;;;;55.97;13.40;;;;;;;6.71;100.00;99357.09;5115641;28;20028;-78
2021/12/28 02:31:26;;;;;;;62.08;13.82;;;;;;;6.67;100.00;99355.31;5111943;28;20036;-78
2021/12/28 02:33:51;;;;;;;64.55;14.23;;;;;;;6.70;100.00;99354.47;5087667;28;20028;-78
2021/12/28 02:36:18;;;;;;;68.85;12.90;;;;;;;6.71;100.00;99354.47;5100210;28;20043;-78
2021/12/28 02:38:45;;;;;;;79.43;14.18;;;;;;;6.74;100.00;99359.75;5085990;28;20032;-79
2021/12/28 02:41:11;;;;;;;66.07;12.82;;;;;;;6.75;100.00;99351.06;5098115;28;20044;-78
2021/12/28 02:43:39;;;;;;;67.13;14.40;;;;;;;6.78;100.00;99354.53;5100832;28;20073;-77
2021/12/28 02:46:06;;;;;;;57.33;12.95;;;;;;;6.77;100.00;99350.19;5087800;28;20028;-78
2021/12/28 02:48:34;;;;;;;68.22;14.13;;;;;;;6.79;100.00;99361.53;5082743;28;20057;-78
2021/12/28 02:51:12;;;;;;;72.75;13.55;;;;;;;6.78;100.00;99346.69;5096236;28;20031;-78
2021/12/28 02:53:39;;;;;;;68.53;15.63;;;;;;;6.78;100.00;99346.69;5090340;28;20034;-78
2021/12/28 02:56:06;;;;;;;63.90;12.52;;;;;;;6.77;100.00;99342.34;5090286;28;20479;-78
2021/12/28 02:58:33;;;;;;;60.22;11.23;;;;;;;6.76;100.00;99336.25;5109245;28;20085;-78
2021/12/28 03:01:08;;;;;;;58.45;12.80;;;;;;;6.74;100.00;99331.00;5115599;28;20047;-78
2021/12/28 03:03:36;;;;;;;75.80;12.95;;;;;;;6.73;100.00;99331.84;5105450;28;20123;-78
2021/12/28 03:06:05;;;;;;;52.42;11.63;;;;;;;6.75;100.00;99326.63;5092642;28;20396;-78
2021/12/28 03:08:32;;;;;;;71.78;13.05;;;;;;;6.75;100.00;99330.16;5096257;28;20027;-78
2021/12/28 03:11:01;;;;;;;57.72;11.52;;;;;;;6.78;100.00;99328.41;5093445;28;20383;-78
2021/12/28 03:13:49;;;;;;;65.95;12.52;;;;;;;6.79;100.00;99324.94;5105118;28;20030;-78
2021/12/28 03:16:16;;;;;;;53.17;11.52;;;;;;;6.80;100.00;99332.78;5082856;28;20035;-78
2021/12/28 03:18:43;;;;;;;62.50;12.00;;;;;;;6.82;100.00;99320.59;5081311;28;20032;-78
2021/12/28 03:21:11;;;;;;;51.35;11.52;;;;;;;6.82;100.00;99317.09;5117031;28;20039;-78
2021/12/28 03:23:39;;;;;;;57.60;12.45;;;;;;;6.82;100.00;99317.09;5101524;28;20046;-78
2021/12/28 03:26:06;;;;;;;70.60;11.52;;;;;;;6.80;100.00;99316.22;5111632;28;20102;-79
2021/12/28 03:28:35;;;;;;;59.55;11.25;;;;;;;6.80;100.00;99301.41;5112752;28;20046;-78
2021/12/28 03:31:03;;;;;;;74.32;12.80;;;;;;;6.81;100.00;99302.28;5106236;28;20118;-78
2021/12/28 03:33:36;;;;;;;64.20;11.70;;;;;;;6.84;100.00;99299.69;5070748;28;20417;-78
2021/12/28 03:36:04;;;;;;;58.33;11.43;;;;;;;6.83;100.00;99295.34;5087503;28;20108;-78
2021/12/28 03:38:31;;;;;;;68.53;12.27;;;;;;;6.83;100.00;99287.50;5081017;28;20077;-78
2021/12/28 03:40:56;;;;;;;57.28;11.48;;;;;;;6.84;100.00;99278.78;5103875;28;20483;-78
2021/12/28 03:43:22;;;;;;;68.95;11.00;;;;;;;6.85;100.00;99288.34;5097625;28;20123;-78
2021/12/28 03:45:49;;;;;;;58.83;10.82;;;;;;;6.86;100.00;99279.66;5095425;28;20035;-78
2021/12/28 03:48:15;;;;;;;57.75;10.60;;;;;;;6.87;100.00;99282.28;5098930;28;20046;-78
2021/12/28 03:50:41;;;;;;;60.65;12.02;;;;;;;6.89;100.00;99279.66;5094229;28;20051;-78
2021/12/28 03:53:07;;;;;;;61.70;10.73;;;;;;;6.90;100.00;99277.09;5114623;28;20063;-78
2021/12/28 03:55:37;;;;;;;46.47;10.75;;;;;;;6.92;100.00;99270.09;5109084;28;20043;-78
2021/12/28 03:58:04;;;;;;;55.53;10.90;;;;;;;6.94;100.00;99272.72;5114885;28;20051;-77
2021/12/28 04:00:41;;;;;;;55.40;11.35;;;;;;;6.92;100.00;99269.25;5115240;28;20035;-77
2021/12/28 04:03:08;;;;;;;56.70;9.93;;;;;;;6.96;100.00;99277.97;5102228;28;20034;-78
2021/12/28 04:05:35;;;;;;;57.63;11.20;;;;;;;6.96;100.00;99270.13;5096920;28;20118;-79
2021/12/28 04:08:01;;;;;;;60.13;11.13;;;;;;;6.97;100.00;99272.75;5115862;28;20490;-79
2021/12/28 04:10:48;;;;;;;60.75;11.38;;;;;;;6.97;100.00;99271.88;5110943;28;20110;-78
2021/12/28 04:13:13;;;;;;;50.70;11.43;;;;;;;6.99;100.00;99268.41;5088435;28;20046;-76
2021/12/28 04:15:39;;;;;;;52.72;11.32;;;;;;;7.02;100.00;99263.19;5079700;28;20479;-78
2021/12/28 04:18:04;;;;;;;61.17;11.77;;;;;;;7.04;100.00;99268.41;5109674;28;20027;-78
2021/12/28 04:20:30;;;;;;;60.00;12.50;;;;;;;7.05;100.00;99263.22;5111835;28;20169;-77
2021/12/28 04:22:55;;;;;;;62.67;12.05;;;;;;;7.05;100.00;99258.00;5089164;28;20425;-77
2021/12/28 04:25:22;;;;;;;72.25;13.05;;;;;;;7.07;100.00;99253.63;5085968;28;20478;-78
2021/12/28 04:27:48;;;;;;;51.75;12.65;;;;;;;7.11;100.00;99251.03;5105486;28;20107;-77
2021/12/28 04:30:15;;;;;;;88.05;17.25;;;;;;;7.13;100.00;99247.53;5098974;28;20073;-78
2021/12/28 04:32:42;;;;;;;82.18;12.95;;;;;;;7.13;100.00;99250.16;5098425;28;20031;-77
2021/12/28 04:35:08;;;;;;;63.53;14.30;;;;;;;7.15;100.00;99244.94;5088300;28;20031;-78
2021/12/28 04:37:35;;;;;;;79.90;15.27;;;;;;;7.16;100.00;99239.72;5096444;28;20023;-77
2021/12/28 04:40:01;;;;;;;61.88;13.00;;;;;;;7.18;100.00;99242.34;5082333;28;20394;-77
2021/12/28 04:42:28;;;;;;;64.80;13.00;;;;;;;7.22;100.00;99241.50;5097001;28;20028;-78
2021/12/28 04:44:54;;;;;;;69.20;14.70;;;;;;;7.24;100.00;99240.63;5104874;28;20406;-78
2021/12/28 04:47:19;;;;;;;56.80;12.70;;;;;;;7.26;100.00;99241.50;5079052;28;20120;-78
2021/12/28 04:49:46;;;;;;;71.82;12.68;;;;;;;7.27;100.00;99234.56;5100532;28;20118;-78
2021/12/28 04:52:12;;;;;;;64.75;12.73;;;;;;;7.27;100.00;99239.78;5101987;28;20357;-78
2021/12/28 04:54:38;;;;;;;69.03;13.32;;;;;;;7.26;100.00;99238.88;5098811;28;20115;-78
2021/12/28 04:57:06;;;;;;;71.20;13.55;;;;;;;7.29;100.00;99227.56;5082178;28;20368;-78
2021/12/28 04:59:32;;;;;;;65.40;11.55;;;;;;;7.29;100.00;99222.34;5094807;28;20048;-78
2021/12/28 05:01:58;;;;;;;71.82;11.50;;;;;;;7.32;100.00;99224.94;5080288;28;20173;-78
2021/12/28 05:04:23;;;;;;;68.28;11.80;;;;;;;7.33;100.00;99223.22;5084337;28;20143;-78
2021/12/28 05:06:52;;;;;;;58.67;11.02;;;;;;;7.37;100.00;99219.75;5102792;28;20097;-78
2021/12/28 05:09:18;;;;;;;55.70;11.05;;;;;;;7.37;100.00;99215.38;5102628;28;20027;-78
2021/12/28 05:11:44;;;;;;;55.40;12.98;;;;;;;7.36;100.00;99213.63;5086194;28;20024;-78
2021/12/28 05:14:12;;;;;;;69.05;11.95;;;;;;;7.38;100.00;99217.13;5082357;28;20028;-78
2021/12/28 05:16:43;;;;;;;57.92;12.35;;;;;;;7.39;100.00;99213.66;5110899;28;20036;-78
2021/12/28 05:19:09;;;;;;;68.90;12.60;;;;;;;7.40;100.00;99209.28;5079109;28;20027;-78
2021/12/28 05:21:36;;;;;;;56.20;11.45;;;;;;;7.42;100.00;99205.81;5111251;28;20024;-78
2021/12/28 05:24:02;;;;;;;70.18;12.57;;;;;;;7.43;100.00;99202.31;5106787;28;20118;-78
2021/12/28 05:26:28;;;;;;;86.18;12.43;;;;;;;7.46;100.00;99204.06;5100979;28;20452;-78
2021/12/28 05:28:53;;;;;;;61.40;11.45;;;;;;;7.50;100.00;99199.72;5077385;28;20092;-78
2021/12/28 05:31:19;;;;;;;66.60;13.10;;;;;;;7.54;100.00;99202.34;5101215;28;20039;-77
2021/12/28 05:33:44;;;;;;;61.15;13.10;;;;;;;7.57;100.00;99186.66;5114403;28;20031;-78
2021/12/28 05:36:10;;;;;;;60.85;13.25;;;;;;;7.63;100.00;99193.63;5105739;28;20042;-78
2021/12/28 05:38:36;;;;;;;79.68;16.60;;;;;;;7.70;100.00;99191.91;5097538;28;20028;-78
2021/12/28 05:41:04;;;;;;;63.45;15.23;;;;;;;7.74;100.00;99188.41;5089369;28;20404;-78
2021/12/28 05:43:31;;;;;;;63.13;16.17;;;;;;;7.78;100.00;99186.69;5091958;28;20039;-78
2021/12/28 05:45:57;;;;;;;66.80;17.83;;;;;;;7.83;100.00;99183.19;5104857;28;20039;-79
2021/12/28 05:48:22;;;;;;;59.90;18.13;;;;;;;7.89;100.00;99187.56;5112938;28;20031;-78
2021/12/28 05:50:54;;;;;;;72.10;19.85;;;;;;;8.01;100.00;99182.31;5109607;28;20028;-78
2021/12/28 05:53:20;;;;;;;63.60;19.95;;;;;;;8.05;100.00;99177.97;5083149;28;20032;-78
2021/12/28 05:55:45;;;;;;;73.32;19.77;;;;;;;8.07;100.00;99169.22;5103718;28;20020;-78
2021/12/28 05:58:11;;;;;;;69.78;18.05;;;;;;;8.15;100.00;99170.97;5102411;28;20052;-78
2021/12/28 06:00:37;;;;;;;64.80;18.63;;;;;;;8.19;100.00;99165.75;5109007;28;20114;-78
2021/12/28 06:03:02;;;;;;;74.88;19.10;;;;;;;8.20;100.00;99156.13;5115669;28;20056;-78
2021/12/28 06:05:28;;;;;;;62.28;20.63;;;;;;;8.24;100.00;99157.84;5102902;28;20030;-78
2021/12/28 06:07:53;;;;;;;54.30;18.67;;;;;;;8.27;100.00;99153.50;5121583;28;20106;-79
2021/12/28 06:10:19;;;;;;;55.13;17.67;;;;;;;8.29;100.00;99156.13;5101305;28;20517;-78
2021/12/28 06:12:44;;;;;;;39.17;16.83;;;;;;;8.28;100.00;99147.34;5098940;28;20391;-78
2021/12/28 06:15:11;;;;;;;52.50;17.40;;;;;;;8.32;100.00;99144.75;5097175;28;20035;-78
2021/12/28 06:17:36;;;;;;;51.47;17.42;;;;;;;8.32;100.00;99140.38;5084426;28;20081;-78
2021/12/28 06:20:04;;;;;;;51.03;16.80;;;;;;;8.33;100.00;99136.88;5098671;28;20471;-78
2021/12/28 06:22:29;;;;;;;50.88;16.70;;;;;;;8.33;100.00;99134.25;5110428;28;20115;-79
2021/12/28 06:24:55;;;;;;;49.72;16.45;;;;;;;8.35;100.00;99135.13;5111802;28;20038;-78
2021/12/28 06:27:21;;;;;;;58.17;16.95;;;;;;;8.37;100.00;99128.13;5101556;28;20039;-78
2021/12/28 06:29:47;;;;;;;42.40;16.00;;;;;;;8.40;100.00;99128.13;5092441;28;20024;-79
2021/12/28 06:32:12;;;;;;;49.00;15.82;;;;;;;8.39;100.00;99136.84;5092943;28;20076;-78
2021/12/28 06:34:38;;;;;;;50.58;15.63;;;;;;;8.43;100.00;99137.72;5109517;28;20152;-78
2021/12/28 06:37:04;;;;;;;35.97;15.77;;;;;;;8.41;100.00;99134.22;5110019;28;20441;-78
2021/12/28 06:39:30;;;;;;;46.63;16.00;;;;;;;8.42;100.00;99133.34;5091433;28;20023;-79
2021/12/28 06:41:56;;;;;;;49.90;17.08;;;;;;;8.43;100.00;99128.09;5090678;28;20039;-78
2021/12/28 06:44:30;;;;;;;43.50;16.83;;;;;;;8.47;100.00;99125.53;5112721;28;20047;-78
2021/12/28 06:46:55;;;;;;;44.03;16.77;;;;;;;8.46;100.00;99126.41;5098479;28;20475;-79
2021/12/28 06:49:23;;;;;;;61.90;18.33;;;;;;;8.47;100.00;99126.41;5089304;28;20071;-79
2021/12/28 06:51:48;;;;;;;57.15;19.70;;;;;;;8.50;100.00;99117.66;5098917;28;20039;-80
2021/12/28 06:54:14;;;;;;;50.15;19.25;;;;;;;8.53;100.00;99117.63;5107718;28;20023;-81
2021/12/28 06:56:40;;;;;;;51.40;19.90;;;;;;;8.51;100.00;99109.78;5094619;28;20115;-80
2021/12/28 06:59:06;;;;;;;54.55;21.42;;;;;;;8.52;100.00;99116.78;5071692;28;20015;-81
2021/12/28 07:01:31;;;;;;;61.60;23.20;;;;;;;8.55;100.00;99121.13;5104936;28;20488;-81
2021/12/28 07:04:22;;;;;;;65.50;25.80;;;;;;;8.56;100.00;99122.84;5101313;28;20430;-79
2021/12/28 07:06:49;;;;;;;76.38;29.17;;;;;;;8.62;100.00;99122.84;5096177;28;20046;-80
2021/12/28 07:09:21;;;;;;;88.13;30.45;;;;;;;8.62;100.00;99124.63;5093498;28;20028;-79
2021/12/28 07:11:47;;;;;;;86.70;30.67;;;;;;;8.62;100.00;99124.63;5096580;28;20051;-80
2021/12/28 07:14:13;;;;;;;90.75;31.13;;;;;;;8.60;100.00;99114.13;5101877;28;20057;-80
2021/12/28 07:16:38;;;;;;;89.13;30.58;;;;;;;8.61;100.00;99105.38;5092983;28;20035;-80
2021/12/28 07:19:09;;;;;;;105.95;33.30;;;;;;;8.58;100.00;99106.25;5116696;28;20023;-80
2021/12/28 07:21:40;;;;;;;88.30;32.53;;;;;;;8.61;100.00;99092.25;5111547;28;20150;-80
2021/12/28 07:24:08;;;;;;;102.80;33.95;;;;;;;8.59;100.00;99086.16;5103559;28;20356;-79
2021/12/28 07:26:35;;;;;;;91.45;32.53;;;;;;;8.56;100.00;99099.25;5110831;28;20030;-81
2021/12/28 07:29:01;;;;;;;87.22;31.65;;;;;;;8.63;100.00;99103.63;5103485;28;20398;-80
2021/12/28 07:31:27;;;;;;;83.15;32.70;;;;;;;8.64;100.00;99108.00;5108067;28;20098;-81
2021/12/28 07:33:53;;;;;;;92.32;31.70;;;;;;;8.63;100.00;99103.63;5093629;28;20552;-81
2021/12/28 07:36:20;;;;;;;83.65;30.25;;;;;;;8.63;100.00;99102.75;5100964;28;20039;-81
2021/12/28 07:38:47;;;;;;;81.53;29.63;;;;;;;8.63;100.00;99108.88;5094931;28;20040;-80
2021/12/28 07:41:13;;;;;;;76.63;27.75;;;;;;;8.63;100.00;99093.16;5086568;28;20035;-80
2021/12/28 07:43:39;;;;;;;78.15;28.25;;;;;;;8.64;100.00;99088.75;5083231;28;20055;-79
2021/12/28 07:46:05;;;;;;;77.38;29.48;;;;;;;8.65;100.00;99090.50;5089251;28;20051;-80
2021/12/28 07:48:30;;;;;;;78.10;30.80;;;;;;;8.67;100.00;99084.38;5089094;28;20044;-80
2021/12/28 07:50:57;;;;;;;79.30;29.20;;;;;;;8.68;100.00;99086.13;5102615;28;20027;-80
2021/12/28 07:53:22;;;;;;;74.88;27.35;;;;;;;8.72;100.00;99077.38;5101273;28;20050;-78
2021/12/28 07:55:48;;;;;;;69.00;28.33;;;;;;;8.74;100.00;99085.22;5088449;28;20798;-78
2021/12/28 07:58:13;;;;;;;74.68;26.85;;;;;;;8.75;100.00;99079.97;5095294;28;20122;-78
2021/12/28 08:00:39;;;;;;;75.20;28.65;;;;;;;8.75;100.00;99082.59;5112497;28;20068;-75
2021/12/28 08:03:04;;;;;;;72.85;28.17;;;;;;;8.74;100.00;99075.59;5101333;28;20391;-76
2021/12/28 08:05:35;;;;;;;75.00;28.20;;;;;;;8.79;100.00;99080.84;5085607;28;20023;-76
2021/12/28 08:08:00;;;;;;;73.13;27.95;;;;;;;8.81;100.00;99078.22;5107069;28;20106;-76
2021/12/28 08:10:26;;;;;;;81.25;30.25;;;;;;;8.80;100.00;99068.59;5082314;28;20119;-75
2021/12/28 08:12:54;;;;;;;79.45;30.75;;;;;;;8.80;100.00;99058.97;5079279;28;20031;-75
2021/12/28 08:15:21;;;;;;;84.10;29.90;;;;;;;8.82;100.00;99067.72;5101868;28;20418;-76
2021/12/28 08:17:47;;;;;;;78.10;29.58;;;;;;;8.82;100.00;99064.19;5114771;28;20027;-75
2021/12/28 08:20:15;;;;;;;82.38;30.48;;;;;;;8.81;100.00;99070.34;5095736;28;20096;-75
2021/12/28 08:22:42;;;;;;;79.68;29.95;;;;;;;8.81;100.00;99054.59;5097824;28;20121;-76
2021/12/28 08:25:11;;;;;;;86.57;29.10;;;;;;;8.80;100.00;99052.84;5081244;28;20455;-75
2021/12/28 08:27:37;;;;;;;67.38;27.95;;;;;;;8.81;100.00;99059.84;5084714;28;20111;-76
2021/12/28 08:30:04;;;;;;;71.80;27.25;;;;;;;8.81;100.00;99052.84;5090194;28;20431;-76
2021/12/28 08:32:29;;;;;;;62.80;24.67;;;;;;;8.86;100.00;99063.31;5100649;28;20437;-76
2021/12/28 08:34:55;;;;;;;68.22;27.00;;;;;;;8.83;100.00;99052.84;5095618;28;20023;-76
2021/12/28 08:37:20;;;;;;;62.15;24.80;;;;;;;8.88;100.00;99051.91;5090327;28;20058;-75
2021/12/28 08:39:45;;;;;;;66.65;25.13;;;;;;;8.85;100.00;99051.94;5086316;28;20039;-76
2021/12/28 08:42:11;;;;;;;56.53;22.92;;;;;;;8.90;100.00;99046.69;5105187;28;20024;-76
2021/12/28 08:44:36;;;;;;;58.38;24.48;;;;;;;8.91;100.00;99045.78;5096734;28;20056;-77
2021/12/28 08:47:03;;;;;;;58.75;23.05;;;;;;;8.93;100.00;99050.16;5105255;28;20062;-77
2021/12/28 08:49:28;;;;;;;61.08;23.88;;;;;;;8.95;100.00;99050.13;5102133;28;20421;-77
2021/12/28 08:51:54;;;;;;;53.13;22.83;;;;;;;8.99;100.00;99043.13;5087768;28;20109;-76
2021/12/28 08:54:20;;;;;;;56.92;22.85;;;;;;;8.98;100.00;99042.28;5090521;28;20055;-76
2021/12/28 08:56:47;;;;;;;50.45;22.17;;;;;;;8.99;100.00;99038.75;5084917;28;20465;-76
2021/12/28 08:59:19;;;;;;;47.58;20.65;;;;;;;9.02;100.00;99041.38;5103262;28;20024;-77
2021/12/28 09:01:46;;;;;;;44.75;20.50;;;;;;;9.02;100.00;99033.50;5088250;28;20040;-77
2021/12/28 09:04:13;;;;;;;41.70;20.33;;;;;;;9.06;100.00;99024.72;5100057;28;20024;-75
2021/12/28 09:06:38;;;;;;;43.90;19.60;;;;;;;9.09;100.00;99031.72;5096550;28;20043;-76
2021/12/28 09:09:04;;;;;;;37.47;18.40;;;;;;;9.11;100.00;99022.94;5105206;28;20016;-73
2021/12/28 09:11:29;;;;;;;39.50;18.65;;;;;;;9.10;100.00;99018.56;5081211;28;20384;-73
2021/12/28 09:13:55;;;;;;;33.45;16.48;;;;;;;9.16;100.00;99019.41;5081544;28;20028;-76
2021/12/28 09:16:22;;;;;;;31.20;15.68;;;;;;;9.19;100.00;99014.13;5103381;28;20038;-79
2021/12/28 09:18:48;;;;;;;32.70;15.57;;;;;;;9.23;100.00;99013.22;5090333;28;20406;-76
2021/12/28 09:21:14;;;;;;;33.72;15.43;;;;;;;9.24;100.00;99012.34;5095989;28;20040;-77
2021/12/28 09:23:39;;;;;;;27.63;14.93;;;;;;;9.23;100.00;99010.59;5101026;28;20024;-78
2021/12/28 09:26:06;;;;;;;28.15;15.73;;;;;;;9.28;100.00;99008.81;5105629;28;20030;-77
2021/12/28 09:28:31;;;;;;;30.38;13.80;;;;;;;9.26;100.00;99000.97;5099656;28;20047;-77
2021/12/28 09:30:57;;;;;;;24.00;12.77;;;;;;;9.30;100.00;99000.94;5086398;28;20130;-77
2021/12/28 09:33:24;;;;;;;21.30;10.90;;;;;;;9.27;100.00;99000.06;5089178;28;20555;-77
2021/12/28 09:35:51;;;;;;;23.45;10.73;;;;;;;9.31;100.00;98992.19;5104396;28;20118;-77
2021/12/28 09:38:19;;;;;;;15.80;9.43;;;;;;;9.31;100.00;98993.03;5085329;28;20032;-77
2021/12/28 09:40:46;;;;;;;19.33;9.95;;;;;;;9.33;100.00;98991.25;5070986;28;20584;-76
2021/12/28 09:43:13;;;;;;;16.90;8.93;;;;;;;9.39;100.00;98988.59;5057186;28;20044;-76
2021/12/28 09:45:39;;;;;;;17.10;9.68;;;;;;;9.37;100.00;98992.13;5059289;28;20044;-76
2021/12/28 09:48:05;;;;;;;19.15;9.35;;;;;;;9.33;100.00;98993.88;5060324;28;20099;-76
2021/12/28 09:50:34;;;;;;;15.23;10.05;;;;;;;9.34;100.00;98985.13;5068137;28;20036;-75
2021/12/28 09:53:01;;;;;;;14.65;9.65;;;;;;;9.37;100.00;98987.75;5068536;28;20025;-76
2021/12/28 09:55:29;;;;;;;19.52;9.13;;;;;;;9.35;100.00;98980.78;5061980;28;20029;-76
2021/12/28 09:57:56;;;;;;;16.13;8.70;;;;;;;9.36;100.00;98986.00;5059909;28;20430;-76
2021/12/28 10:00:27;;;;;;;14.77;7.97;;;;;;;9.37;100.00;98982.50;5061595;28;20025;-78
2021/12/28 10:03:00;;;;;;;13.45;7.95;;;;;;;9.34;100.00;98969.38;5063636;28;20024;-79
2021/12/28 10:05:27;;;;;;;13.40;7.60;;;;;;;9.36;100.00;98969.38;5063926;28;20059;-78
2021/12/28 10:07:59;;;;;;;10.65;7.10;;;;;;;9.39;100.00;98969.38;5066413;28;20074;-77
2021/12/28 10:10:37;;;;;;;10.15;7.30;;;;;;;9.40;100.00;98966.72;5068421;28;20052;-78
2021/12/28 10:13:09;;;;;;;12.43;7.88;;;;;;;9.41;100.00;98967.56;5051276;28;20032;-78
2021/12/28 10:15:40;;;;;;;11.68;7.25;;;;;;;9.39;100.00;98958.88;5056306;28;20112;-77
2021/12/28 10:18:12;;;;;;;12.95;8.35;;;;;;;9.41;100.00;98963.22;5065297;28;20035;-78
2021/12/28 10:20:54;;;;;;;12.25;7.60;;;;;;;9.35;100.00;98952.75;5083671;28;20043;-77
2021/12/28 10:23:26;;;;;;;13.50;7.30;;;;;;;9.38;100.00;98952.72;5058715;28;20028;-77
2021/12/28 10:26:01;;;;;;;12.27;6.45;;;;;;;9.34;100.00;98944.91;5069988;28;20123;-77
2021/12/28 10:28:33;;;;;;;13.05;7.53;;;;;;;9.34;100.00;98951.00;5057483;28;20481;-77
2021/12/28 10:31:09;;;;;;;7.05;5.45;;;;;;;9.33;100.00;98954.50;5060559;28;20622;-78
2021/12/28 10:33:38;;;;;;;10.55;5.72;;;;;;;9.34;100.00;98951.00;5063897;28;20029;-79
2021/12/28 10:36:16;;;;;;;9.27;5.57;;;;;;;9.28;100.00;98951.09;5061273;28;20536;-79
2021/12/28 10:38:50;;;;;;;8.25;6.10;;;;;;;9.24;100.00;98941.50;5048860;28;20025;-79
2021/12/28 10:41:20;;;;;;;9.45;5.68;;;;;;;9.21;100.00;98938.88;5065692;28;20049;-80
2021/12/28 10:43:55;;;;;;;8.43;5.10;;;;;;;9.21;100.00;98939.78;5063970;28;20123;-80
2021/12/28 10:46:26;;;;;;;7.88;4.95;;;;;;;9.22;100.00;98935.38;5068798;28;20032;-80
2021/12/28 10:48:57;;;;;;;8.23;4.65;;;;;;;9.22;100.00;98914.38;5063016;28;20111;-79
2021/12/28 10:51:29;;;;;;;7.80;4.10;;;;;;;9.24;100.00;98917.88;5058415;28;20135;-79
2021/12/28 10:54:12;;;;;;;6.20;3.47;;;;;;;9.26;100.00;98911.75;5062818;28;20441;-79
2021/12/28 10:56:53;;;;;;;6.80;4.10;;;;;;;9.29;100.00;98910.81;5072459;28;20024;-78
2021/12/28 10:59:24;;;;;;;8.02;3.50;;;;;;;9.33;100.00;98911.66;5069162;28;20052;-77
2021/12/28 11:01:52;;;;;;;5.15;3.42;;;;;;;9.24;100.00;98916.13;5063772;28;20044;-78
2021/12/28 11:04:18;;;;;;;7.30;4.20;;;;;;;9.21;100.00;98913.53;5061120;28;20111;-77
2021/12/28 11:06:45;;;;;;;9.60;5.05;;;;;;;9.24;100.00;98907.38;5066127;28;20021;-77
2021/12/28 11:09:17;;;;;;;15.15;6.57;;;;;;;9.24;100.00;98902.13;5061448;28;20052;-77
2021/12/28 11:11:43;;;;;;;13.68;5.88;;;;;;;9.26;100.00;98919.59;5065573;28;20448;-77
2021/12/28 11:14:14;;;;;;;9.82;4.80;;;;;;;9.20;100.00;98898.66;5067680;28;20027;-78
2021/12/28 11:16:41;;;;;;;11.20;4.07;;;;;;;9.22;100.00;98893.38;5065311;28;20059;-78
2021/12/28 11:19:09;;;;;;;7.07;3.55;;;;;;;9.15;100.00;98892.56;5064830;28;20468;-77
2021/12/28 11:21:38;;;;;;;7.18;3.80;;;;;;;9.15;100.00;98902.22;5063077;28;20025;-76
2021/12/28 11:24:10;;;;;;;7.82;3.47;;;;;;;9.14;100.00;98890.81;5057135;28;20021;-78